Time;durP1;ratioP1;P1;durP2;ratioP2;P2;SDS_P1;SDS_P2;PMS_P1;PMS_P2;Temp;Humidity;BMP_temperature;BMP_pressure;BME280_temperature;BME280_humidity;BME280_pressure;Samples;Min_cycle;Max_cycle;Signal;HPM_P1;HPM_P2
2022/12/18 00:04:28;;;;;;;8.50;4.43;;;;;;;;;;10410659;28;20144;-74
2022/12/18 00:09:31;;;;;;;8.20;4.80;;;;;;;;;;10421731;28;20057;-73
2022/12/18 00:14:31;;;;;;;7.28;4.03;;;;;;;;;;10405161;28;20141;-75
2022/12/18 00:19:32;;;;;;;7.68;4.78;;;;;;;;;;10386429;28;20531;-77
2022/12/18 00:24:33;;;;;;;6.47;4.32;;;;;;;;;;10401893;28;20446;-75
2022/12/18 00:29:34;;;;;;;9.30;5.20;;;;;;;;;;10402859;28;20048;-79
2022/12/18 00:34:34;;;;;;;8.70;5.05;;;;;;;;;;10418206;28;20913;-75
2022/12/18 00:39:35;;;;;;;8.82;5.00;;;;;;;;;;10403056;28;20399;-79
2022/12/18 00:44:37;;;;;;;10.20;5.70;;;;;;;;;;10424769;28;20150;-80
2022/12/18 00:49:37;;;;;;;10.07;5.70;;;;;;;;;;10400491;28;20425;-76
2022/12/18 00:54:37;;;;;;;10.35;5.82;;;;;;;;;;10433203;28;20050;-78
2022/12/18 00:59:38;;;;;;;10.30;6.40;;;;;;;;;;10426334;28;20021;-77
2022/12/18 01:04:38;;;;;;;12.55;6.20;;;;;;;;;;10424612;28;20035;-81
2022/12/18 01:09:38;;;;;;;12.85;6.15;;;;;;;;;;10425421;28;20020;-79
2022/12/18 01:14:38;;;;;;;14.82;6.03;;;;;;;;;;10424886;28;20059;-79
2022/12/18 01:19:39;;;;;;;13.75;7.03;;;;;;;;;;10417871;28;20490;-77
2022/12/18 01:24:39;;;;;;;12.80;7.05;;;;;;;;;;10424600;28;20071;-77
2022/12/18 01:29:42;;;;;;;13.60;6.57;;;;;;;;;;10424687;28;20380;-79
2022/12/18 01:34:43;;;;;;;12.15;6.35;;;;;;;;;;10407442;28;20407;-77
2022/12/18 01:39:43;;;;;;;10.57;6.20;;;;;;;;;;10424317;28;20040;-78
2022/12/18 01:44:55;;;;;;;13.52;7.05;;;;;;;;;;10440704;28;20682;-76
2022/12/18 01:49:56;;;;;;;12.98;7.15;;;;;;;;;;10444336;28;20090;-76
2022/12/18 01:54:57;;;;;;;11.90;6.97;;;;;;;;;;10471114;28;20442;-75
2022/12/18 02:00:04;;;;;;;12.77;6.00;;;;;;;;;;10438145;28;20029;-76
2022/12/18 02:05:05;;;;;;;12.07;6.95;;;;;;;;;;10449087;28;20029;-72
2022/12/18 02:10:08;;;;;;;13.23;5.95;;;;;;;;;;10393679;28;20020;-82
2022/12/18 02:15:27;;;;;;;15.68;7.97;;;;;;;;;;10424906;28;20025;-73
2022/12/18 02:20:49;;;;;;;12.60;6.03;;;;;;;;;;10423797;28;20140;-75
2022/12/18 02:25:55;;;;;;;17.02;7.47;;;;;;;;;;10440139;28;20087;-78
2022/12/18 02:30:58;;;;;;;12.35;6.75;;;;;;;;;;10440804;28;20025;-73
2022/12/18 02:35:58;;;;;;;13.68;7.47;;;;;;;;;;10423210;28;20064;-74
2022/12/18 02:40:59;;;;;;;13.23;7.00;;;;;;;;;;10427601;28;20173;-75
2022/12/18 02:46:00;;;;;;;13.20;8.18;;;;;;;;;;10429899;28;20016;-78
2022/12/18 02:51:10;;;;;;;19.08;7.30;;;;;;;;;;10446087;28;20413;-76
2022/12/18 02:56:19;;;;;;;11.07;6.35;;;;;;;;;;10409909;28;20049;-74
2022/12/18 03:01:42;;;;;;;14.00;7.38;;;;;;;;;;10425625;28;20108;-76
2022/12/18 03:06:45;;;;;;;11.60;6.65;;;;;;;;;;10447785;28;20028;-78
2022/12/18 03:17:12;;;;;;;13.85;6.88;;;;;;;;;;10448944;28;20600;-75
2022/12/18 03:22:13;;;;;;;12.48;7.07;;;;;;;;;;10429340;28;20028;-76
2022/12/18 03:27:14;;;;;;;14.60;7.53;;;;;;;;;;10428510;28;20064;-75
2022/12/18 03:32:17;;;;;;;14.70;7.47;;;;;;;;;;10428792;28;20510;-75
2022/12/18 03:37:17;;;;;;;18.38;6.95;;;;;;;;;;10429074;28;20029;-73
2022/12/18 03:42:18;;;;;;;13.02;6.88;;;;;;;;;;10444628;28;20060;-75
2022/12/18 03:47:28;;;;;;;11.13;6.18;;;;;;;;;;10444326;28;20029;-74
2022/12/18 03:52:37;;;;;;;11.52;6.78;;;;;;;;;;10450731;28;20115;-73
2022/12/18 03:57:38;;;;;;;14.57;6.93;;;;;;;;;;10438303;28;20479;-75
2022/12/18 04:02:42;;;;;;;14.60;6.55;;;;;;;;;;10446831;28;20135;-75
2022/12/18 04:07:43;;;;;;;13.43;7.22;;;;;;;;;;10426919;28;20060;-80
2022/12/18 04:12:43;;;;;;;13.80;7.15;;;;;;;;;;10426426;28;20053;-76
2022/12/18 04:17:47;;;;;;;15.60;7.28;;;;;;;;;;10444261;28;20103;-77
2022/12/18 04:22:47;;;;;;;18.17;7.53;;;;;;;;;;10426418;28;20050;-76
2022/12/18 04:27:47;;;;;;;14.73;6.82;;;;;;;;;;10443652;28;20024;-75
2022/12/18 04:32:49;;;;;;;13.60;7.25;;;;;;;;;;10443602;28;20035;-80
2022/12/18 04:37:53;;;;;;;10.77;7.10;;;;;;;;;;10409388;28;20028;-74
2022/12/18 04:42:53;;;;;;;13.70;7.07;;;;;;;;;;10425882;28;20099;-77
2022/12/18 04:47:53;;;;;;;17.73;8.02;;;;;;;;;;10442297;28;20403;-76
2022/12/18 04:52:54;;;;;;;17.92;8.05;;;;;;;;;;10442603;28;20036;-75
2022/12/18 04:57:54;;;;;;;22.10;9.68;;;;;;;;;;10425436;28;20017;-74
2022/12/18 05:02:54;;;;;;;16.63;8.73;;;;;;;;;;10441216;28;20062;-79
2022/12/18 05:07:55;;;;;;;14.63;8.32;;;;;;;;;;10443334;28;20025;-73
2022/12/18 05:12:58;;;;;;;18.80;10.30;;;;;;;;;;10425102;28;20029;-76
2022/12/18 05:18:00;;;;;;;18.38;8.65;;;;;;;;;;10425789;28;20068;-76
2022/12/18 05:23:00;;;;;;;19.65;10.35;;;;;;;;;;10442445;28;20036;-75
2022/12/18 05:28:00;;;;;;;20.77;8.90;;;;;;;;;;10443150;28;20028;-74
2022/12/18 05:33:01;;;;;;;18.77;9.48;;;;;;;;;;10449329;28;20036;-75
2022/12/18 05:38:02;;;;;;;22.27;9.27;;;;;;;;;;10480456;28;20059;-79
2022/12/18 05:43:03;;;;;;;16.42;8.60;;;;;;;;;;10418506;28;20057;-77
2022/12/18 05:48:03;;;;;;;19.20;9.30;;;;;;;;;;10400586;28;20411;-76
2022/12/18 05:53:04;;;;;;;16.75;8.45;;;;;;;;;;10380962;28;20171;-75
2022/12/18 05:58:05;;;;;;;16.17;9.20;;;;;;;;;;10397652;28;20112;-75
2022/12/18 06:03:06;;;;;;;22.98;9.80;;;;;;;;;;10413620;28;20037;-80
2022/12/18 06:08:06;;;;;;;19.17;10.57;;;;;;;;;;10382820;28;20026;-76
2022/12/18 06:13:08;;;;;;;23.95;10.52;;;;;;;;;;10395887;28;20527;-79
2022/12/18 06:18:08;;;;;;;23.08;10.55;;;;;;;;;;10382539;28;20021;-75
2022/12/18 06:23:09;;;;;;;20.85;10.07;;;;;;;;;;10400652;28;20033;-79
2022/12/18 06:28:09;;;;;;;21.63;10.85;;;;;;;;;;10401316;28;20018;-75
2022/12/18 06:33:10;;;;;;;22.10;11.98;;;;;;;;;;10406511;28;20068;-78
2022/12/18 06:38:10;;;;;;;23.05;10.65;;;;;;;;;;10399788;28;20022;-80
2022/12/18 06:43:10;;;;;;;22.60;11.20;;;;;;;;;;10406618;28;20065;-77
2022/12/18 06:48:12;;;;;;;21.63;11.05;;;;;;;;;;10404323;28;20025;-75
2022/12/18 06:53:12;;;;;;;27.90;10.95;;;;;;;;;;10392663;28;20017;-76
2022/12/18 06:58:12;;;;;;;24.20;11.05;;;;;;;;;;10387912;28;20068;-76
2022/12/18 07:03:13;;;;;;;25.48;11.52;;;;;;;;;;10408443;28;20083;-77
2022/12/18 07:08:13;;;;;;;23.90;11.75;;;;;;;;;;10412254;28;20025;-80
2022/12/18 07:13:13;;;;;;;23.55;12.20;;;;;;;;;;10417916;28;20155;-79
2022/12/18 07:18:13;;;;;;;22.98;11.65;;;;;;;;;;10420019;28;20025;-74
2022/12/18 07:23:14;;;;;;;23.95;11.75;;;;;;;;;;10455124;28;20021;-72
2022/12/18 07:28:14;;;;;;;31.30;13.23;;;;;;;;;;10430865;28;20060;-75
2022/12/18 07:33:15;;;;;;;27.80;10.85;;;;;;;;;;10422747;28;20021;-78
2022/12/18 07:38:15;;;;;;;26.80;12.47;;;;;;;;;;10408707;28;20117;-76
2022/12/18 07:43:15;;;;;;;27.25;12.32;;;;;;;;;;10421664;28;20057;-75
2022/12/18 07:48:15;;;;;;;25.02;11.35;;;;;;;;;;10415181;28;20087;-76
2022/12/18 07:53:16;;;;;;;24.67;10.45;;;;;;;;;;10417872;28;20601;-76
2022/12/18 07:58:16;;;;;;;26.23;11.60;;;;;;;;;;10409008;28;20848;-75
2022/12/18 08:03:16;;;;;;;26.65;12.27;;;;;;;;;;10410461;28;20036;-80
2022/12/18 08:08:16;;;;;;;28.27;12.85;;;;;;;;;;10419358;28;20038;-80
2022/12/18 08:13:18;;;;;;;28.40;13.05;;;;;;;;;;10409831;28;20025;-76
2022/12/18 08:18:18;;;;;;;29.15;13.63;;;;;;;;;;10410276;28;20094;-80
2022/12/18 08:23:19;;;;;;;29.73;12.90;;;;;;;;;;10407347;28;20079;-78
2022/12/18 08:28:19;;;;;;;33.90;13.40;;;;;;;;;;10401384;28;20152;-78
2022/12/18 08:33:19;;;;;;;34.10;14.02;;;;;;;;;;10410284;28;20021;-79
2022/12/18 08:38:22;;;;;;;36.65;13.45;;;;;;;;;;10414802;28;20065;-80
2022/12/18 08:48:42;;;;;;;28.50;13.55;;;;;;;;;;10406995;28;20041;-74
2022/12/18 08:53:42;;;;;;;30.70;13.63;;;;;;;;;;10405148;28;20025;-79
2022/12/18 08:58:42;;;;;;;30.92;14.80;;;;;;;;;;10412766;28;20475;-78
2022/12/18 09:03:43;;;;;;;26.50;12.43;;;;;;;;;;10427594;28;20370;-75
2022/12/18 09:08:44;;;;;;;29.60;12.20;;;;;;;;;;10501358;23;20060;-81
2022/12/18 09:13:44;;;;;;;28.60;13.48;;;;;;;;;;10527788;28;20027;-73
2022/12/18 09:18:47;;;;;;;30.02;13.32;;;;;;;;;;10524294;28;20197;-78
2022/12/18 09:23:51;;;;;;;31.58;15.80;;;;;;;;;;10521670;28;20016;-73
2022/12/18 09:28:51;;;;;;;30.75;13.73;;;;;;;;;;10516913;28;20463;-78
2022/12/18 09:33:52;;;;;;;27.63;13.02;;;;;;;;;;10521947;28;20085;-74
2022/12/18 09:38:53;;;;;;;31.40;13.93;;;;;;;;;;10512692;28;20051;-74
2022/12/18 09:43:55;;;;;;;25.17;11.65;;;;;;;;;;10522574;28;20092;-73
2022/12/18 09:48:58;;;;;;;26.73;12.00;;;;;;;;;;10527456;28;20074;-76
2022/12/18 09:54:01;;;;;;;26.55;11.93;;;;;;;;;;10529803;28;20020;-74
2022/12/18 09:59:02;;;;;;;30.83;13.05;;;;;;;;;;10529181;28;20407;-74
2022/12/18 10:04:03;;;;;;;28.45;12.85;;;;;;;;;;10528461;28;20070;-75
2022/12/18 10:09:21;;;;;;;31.52;12.20;;;;;;;;;;10526956;28;20115;-78
2022/12/18 10:14:40;;;;;;;22.80;10.98;;;;;;;;;;10528324;28;20013;-74
2022/12/18 10:19:48;;;;;;;31.10;13.77;;;;;;;;;;10527000;28;20026;-79
2022/12/18 10:25:21;;;;;;;29.38;13.80;;;;;;;;;;10511684;28;20035;-78
2022/12/18 10:30:23;;;;;;;29.20;13.05;;;;;;;;;;10525803;28;20465;-79
2022/12/18 10:35:27;;;;;;;24.98;12.55;;;;;;;;;;10530384;28;20440;-74
2022/12/18 10:40:28;;;;;;;24.55;12.80;;;;;;;;;;10531575;28;20020;-75
2022/12/18 10:45:29;;;;;;;25.92;12.65;;;;;;;;;;10529841;28;20455;-80
2022/12/18 10:50:31;;;;;;;32.23;13.90;;;;;;;;;;10528118;28;20081;-74
2022/12/18 10:55:51;;;;;;;27.27;13.30;;;;;;;;;;10526877;28;20350;-74
2022/12/18 11:01:11;;;;;;;28.60;12.48;;;;;;;;;;10536566;28;20378;-74
2022/12/18 11:06:25;;;;;;;30.23;14.57;;;;;;;;;;10545789;28;20047;-74
2022/12/18 11:11:27;;;;;;;30.15;14.35;;;;;;;;;;10522266;28;20068;-74
2022/12/18 11:16:30;;;;;;;31.50;13.60;;;;;;;;;;10511405;28;20138;-75
2022/12/18 11:21:38;;;;;;;23.95;11.75;;;;;;;;;;10501998;28;20118;-73
2022/12/18 11:26:43;;;;;;;28.63;11.93;;;;;;;;;;10509289;28;20026;-75
2022/12/18 11:31:43;;;;;;;25.38;11.20;;;;;;;;;;10523977;28;20024;-73
2022/12/18 11:36:45;;;;;;;27.80;12.40;;;;;;;;;;10522259;28;20063;-74
2022/12/18 11:42:11;;;;;;;26.88;12.55;;;;;;;;;;10505683;28;21265;-77
2022/12/18 11:47:11;;;;;;;28.60;11.80;;;;;;;;;;10504725;28;20024;-79
2022/12/18 11:52:23;;;;;;;30.35;13.00;;;;;;;;;;10509414;28;20421;-78
2022/12/18 11:57:27;;;;;;;22.95;11.63;;;;;;;;;;10491063;28;20028;-79
2022/12/18 12:02:30;;;;;;;32.58;12.57;;;;;;;;;;10507849;28;20079;-79
2022/12/18 12:07:47;;;;;;;24.48;10.88;;;;;;;;;;10525450;28;20080;-74
2022/12/18 12:13:06;;;;;;;27.48;12.98;;;;;;;;;;10504924;28;20055;-79
2022/12/18 12:18:09;;;;;;;24.20;11.93;;;;;;;;;;10521534;28;20020;-75
2022/12/18 12:23:35;;;;;;;24.52;11.77;;;;;;;;;;10510414;28;20050;-74
2022/12/18 12:28:53;;;;;;;29.92;13.25;;;;;;;;;;10516481;28;20070;-73
2022/12/18 12:34:08;;;;;;;26.38;12.68;;;;;;;;;;10506930;28;20119;-78
2022/12/18 12:39:14;;;;;;;26.02;11.98;;;;;;;;;;10520217;28;20058;-77
2022/12/18 12:44:18;;;;;;;29.20;13.10;;;;;;;;;;10505055;28;20412;-76
2022/12/18 12:49:20;;;;;;;26.10;11.50;;;;;;;;;;10508576;28;20028;-72
2022/12/18 12:54:23;;;;;;;27.60;12.13;;;;;;;;;;10535608;28;20042;-73
2022/12/18 13:00:03;;;;;;;29.35;12.27;;;;;;;;;;10527265;28;20070;-78
2022/12/18 13:05:16;;;;;;;28.83;12.48;;;;;;;;;;10346338;28;20078;-78
2022/12/18 13:10:19;;;;;;;28.55;13.10;;;;;;;;;;10467190;28;20040;-78
2022/12/18 13:15:31;;;;;;;29.05;13.57;;;;;;;;;;10511027;28;20480;-74
2022/12/18 13:20:48;;;;;;;30.88;14.05;;;;;;;;;;10504214;28;20020;-74
2022/12/18 13:25:49;;;;;;;31.48;12.70;;;;;;;;;;10516826;28;20024;-77
2022/12/18 13:30:55;;;;;;;32.67;13.13;;;;;;;;;;10504480;28;20059;-79
2022/12/18 13:36:14;;;;;;;31.20;13.70;;;;;;;;;;10504985;28;20027;-77
2022/12/18 13:41:14;;;;;;;31.10;13.38;;;;;;;;;;10522418;28;20063;-80
2022/12/18 13:46:25;;;;;;;24.27;10.60;;;;;;;;;;10502012;28;20107;-75
2022/12/18 13:51:26;;;;;;;30.42;11.90;;;;;;;;;;10502312;28;20561;-76
2022/12/18 13:56:27;;;;;;;31.40;12.85;;;;;;;;;;10504916;28;20020;-79
2022/12/18 14:01:28;;;;;;;25.08;10.70;;;;;;;;;;10505792;28;20042;-81
2022/12/18 14:06:28;;;;;;;25.52;11.98;;;;;;;;;;10505104;28;20036;-78
2022/12/18 14:11:29;;;;;;;28.02;12.82;;;;;;;;;;10504392;28;20360;-79
2022/12/18 14:16:29;;;;;;;30.77;13.55;;;;;;;;;;10509972;28;20032;-74
2022/12/18 14:21:33;;;;;;;30.65;13.07;;;;;;;;;;10521455;28;20036;-74
2022/12/18 14:26:34;;;;;;;23.60;11.48;;;;;;;;;;10520101;28;20032;-74
2022/12/18 14:31:34;;;;;;;26.37;10.57;;;;;;;;;;10499278;28;20032;-79
2022/12/18 14:36:34;;;;;;;24.48;10.27;;;;;;;;;;10508302;28;20027;-73
2022/12/18 14:41:34;;;;;;;23.52;10.23;;;;;;;;;;10512045;28;20035;-78
2022/12/18 14:46:36;;;;;;;21.83;10.85;;;;;;;;;;10530533;28;20055;-75
2022/12/18 14:51:36;;;;;;;32.38;11.82;;;;;;;;;;10537667;28;20024;-76
2022/12/18 14:56:43;;;;;;;25.70;10.95;;;;;;;;;;10542591;28;20056;-80
2022/12/18 15:01:48;;;;;;;22.90;9.50;;;;;;;;;;10508912;28;20442;-73
2022/12/18 15:07:01;;;;;;;29.95;10.73;;;;;;;;;;10492745;28;20096;-73
2022/12/18 15:12:02;;;;;;;22.48;9.77;;;;;;;;;;10502089;28;20044;-73
2022/12/18 15:17:04;;;;;;;24.97;11.53;;;;;;;;;;10516027;28;20016;-78
2022/12/18 15:22:18;;;;;;;30.08;11.57;;;;;;;;;;10496627;28;20277;-80
2022/12/18 15:27:21;;;;;;;26.77;11.13;;;;;;;;;;10526783;28;20020;-78
2022/12/18 15:32:21;;;;;;;28.20;11.57;;;;;;;;;;10505705;28;20031;-75
2022/12/18 15:37:22;;;;;;;30.42;11.85;;;;;;;;;;10526456;28;20043;-76
2022/12/18 15:47:44;;;;;;;26.23;10.63;;;;;;;;;;10526207;28;20040;-74
2022/12/18 15:52:46;;;;;;;25.50;11.73;;;;;;;;;;10507034;28;20024;-75
2022/12/18 15:57:46;;;;;;;23.83;10.52;;;;;;;;;;10508449;28;20035;-75
2022/12/18 16:02:46;;;;;;;30.98;11.38;;;;;;;;;;10520867;28;20376;-80
2022/12/18 16:07:47;;;;;;;31.70;12.20;;;;;;;;;;10508580;28;20110;-78
2022/12/18 16:12:49;;;;;;;23.95;10.63;;;;;;;;;;10509106;28;20107;-79
2022/12/18 16:17:51;;;;;;;26.13;10.70;;;;;;;;;;10502615;28;20380;-76
2022/12/18 16:22:52;;;;;;;23.83;12.23;;;;;;;;;;10525916;28;20117;-78
2022/12/18 16:27:54;;;;;;;27.92;11.00;;;;;;;;;;10509442;28;20028;-78
2022/12/18 16:32:55;;;;;;;27.10;10.68;;;;;;;;;;10524845;28;20121;-77
2022/12/18 16:38:05;;;;;;;29.25;10.82;;;;;;;;;;10510068;28;20117;-75
2022/12/18 16:43:06;;;;;;;25.25;11.68;;;;;;;;;;10532630;28;20019;-73
2022/12/18 16:48:06;;;;;;;28.43;10.53;;;;;;;;;;10513989;28;20028;-75
2022/12/18 16:53:06;;;;;;;25.33;10.40;;;;;;;;;;10587617;22;20815;-78
2022/12/18 16:58:07;;;;;;;24.60;10.27;;;;;;;;;;10460975;28;20021;-78
2022/12/18 17:03:07;;;;;;;25.67;12.40;;;;;;;;;;10459119;28;20123;-73
2022/12/18 17:08:07;;;;;;;24.60;9.70;;;;;;;;;;10482943;28;20189;-74
2022/12/18 17:13:08;;;;;;;34.53;13.07;;;;;;;;;;10481989;28;20116;-79
2022/12/18 17:18:08;;;;;;;25.85;11.52;;;;;;;;;;10467584;28;20559;-78
2022/12/18 17:23:09;;;;;;;30.77;12.75;;;;;;;;;;10478993;28;20526;-78
2022/12/18 17:28:09;;;;;;;29.92;11.88;;;;;;;;;;10489667;28;20032;-77
2022/12/18 17:33:10;;;;;;;26.08;10.48;;;;;;;;;;10520081;28;20119;-79
2022/12/18 17:38:11;;;;;;;29.15;11.57;;;;;;;;;;10502893;28;20027;-75
2022/12/18 17:43:12;;;;;;;23.15;10.00;;;;;;;;;;10518474;28;20024;-79
2022/12/18 17:48:13;;;;;;;32.78;11.63;;;;;;;;;;10512125;28;20028;-76
2022/12/18 17:53:14;;;;;;;26.23;11.77;;;;;;;;;;10510452;28;20091;-75
2022/12/18 17:58:14;;;;;;;27.65;11.40;;;;;;;;;;10501078;28;20468;-75
2022/12/18 18:03:14;;;;;;;27.83;12.02;;;;;;;;;;10513141;28;20024;-75
2022/12/18 18:08:15;;;;;;;30.67;11.77;;;;;;;;;;10505276;28;20064;-75
2022/12/18 18:18:40;;;;;;;34.22;13.00;;;;;;;;;;10534794;28;20024;-77
2022/12/18 18:23:40;;;;;;;25.45;11.73;;;;;;;;;;10520547;28;20032;-75
2022/12/18 18:28:44;;;;;;;26.45;12.63;;;;;;;;;;10518993;28;20119;-73
2022/12/18 18:33:44;;;;;;;32.78;13.60;;;;;;;;;;10542233;28;20034;-74
2022/12/18 18:38:45;;;;;;;32.58;12.35;;;;;;;;;;10542809;28;20020;-73
2022/12/18 18:43:47;;;;;;;33.25;13.27;;;;;;;;;;10522713;28;20031;-75
2022/12/18 18:48:47;;;;;;;28.05;11.55;;;;;;;;;;10507348;28;20024;-75
2022/12/18 18:53:48;;;;;;;25.15;12.18;;;;;;;;;;10527523;28;20478;-76
2022/12/18 18:58:51;;;;;;;24.15;10.55;;;;;;;;;;10528640;28;20089;-74
2022/12/18 19:03:53;;;;;;;33.63;13.15;;;;;;;;;;10508023;28;20012;-75
2022/12/18 19:08:53;;;;;;;30.35;11.80;;;;;;;;;;10507449;28;20440;-73
2022/12/18 19:13:54;;;;;;;24.05;12.13;;;;;;;;;;10527042;28;20028;-74
2022/12/18 19:18:56;;;;;;;35.72;12.77;;;;;;;;;;10491935;28;20097;-75
2022/12/18 19:23:56;;;;;;;25.92;11.77;;;;;;;;;;10518174;28;20036;-73
2022/12/18 19:29:15;;;;;;;31.08;12.65;;;;;;;;;;10500103;28;20039;-79
2022/12/18 19:34:15;;;;;;;35.80;14.43;;;;;;;;;;10524158;28;20062;-74
2022/12/18 19:39:16;;;;;;;35.55;12.32;;;;;;;;;;10506063;28;20826;-74
2022/12/18 19:44:17;;;;;;;32.03;11.52;;;;;;;;;;10507056;28;20052;-74
2022/12/18 19:49:20;;;;;;;30.87;13.97;;;;;;;;;;10525518;28;20665;-72
2022/12/18 19:54:20;;;;;;;32.05;13.98;;;;;;;;;;10506803;28;20062;-74
2022/12/18 19:59:20;;;;;;;35.13;15.33;;;;;;;;;;10524632;28;20035;-77
2022/12/18 20:04:24;;;;;;;32.13;13.30;;;;;;;;;;10506495;28;20024;-73
2022/12/18 20:09:25;;;;;;;25.20;13.25;;;;;;;;;;10513119;28;20119;-74
2022/12/18 20:14:25;;;;;;;31.92;13.15;;;;;;;;;;10537554;28;20076;-73
2022/12/18 20:19:26;;;;;;;28.05;11.23;;;;;;;;;;10547410;28;20039;-74
2022/12/18 20:24:27;;;;;;;33.95;13.57;;;;;;;;;;10521792;28;20034;-74
2022/12/18 20:29:28;;;;;;;32.63;11.77;;;;;;;;;;10530138;28;20063;-73
2022/12/18 20:34:28;;;;;;;32.17;14.30;;;;;;;;;;10528214;28;20114;-79
2022/12/18 20:39:29;;;;;;;35.13;14.15;;;;;;;;;;10526635;28;20111;-75
2022/12/18 20:44:29;;;;;;;33.05;13.15;;;;;;;;;;10526363;28;20051;-78
2022/12/18 20:49:29;;;;;;;27.13;14.30;;;;;;;;;;10524625;28;20086;-75
2022/12/18 20:54:29;;;;;;;27.83;12.45;;;;;;;;;;10508235;28;20147;-76
2022/12/18 20:59:30;;;;;;;36.42;14.32;;;;;;;;;;10514847;28;20028;-74
2022/12/18 21:04:30;;;;;;;36.08;14.95;;;;;;;;;;10507607;28;20024;-76
2022/12/18 21:09:31;;;;;;;37.23;15.27;;;;;;;;;;10524591;28;20063;-75
2022/12/18 21:14:31;;;;;;;35.10;13.60;;;;;;;;;;10507279;28;20032;-74
2022/12/18 21:19:31;;;;;;;42.92;16.02;;;;;;;;;;10505307;28;20494;-76
2022/12/18 21:24:32;;;;;;;35.33;15.23;;;;;;;;;;10521941;28;20024;-74
2022/12/18 21:29:33;;;;;;;32.25;13.48;;;;;;;;;;10503589;28;20105;-79
2022/12/18 21:34:34;;;;;;;35.78;14.27;;;;;;;;;;10503329;28;20110;-76
2022/12/18 21:39:34;;;;;;;33.85;14.35;;;;;;;;;;10503131;28;20032;-75
2022/12/18 21:44:35;;;;;;;33.08;15.05;;;;;;;;;;10521965;28;20059;-78
2022/12/18 21:49:36;;;;;;;33.60;13.30;;;;;;;;;;10523705;28;20028;-74
2022/12/18 21:54:36;;;;;;;34.40;14.10;;;;;;;;;;10522694;28;20060;-74
2022/12/18 21:59:38;;;;;;;34.37;14.57;;;;;;;;;;10505902;28;20024;-77
2022/12/18 22:04:38;;;;;;;39.28;16.50;;;;;;;;;;10548400;28;20039;-76
2022/12/18 22:09:39;;;;;;;34.40;14.40;;;;;;;;;;10514514;28;20036;-83
2022/12/18 22:14:41;;;;;;;29.42;13.93;;;;;;;;;;10537549;28;20591;-78
2022/12/18 22:19:41;;;;;;;36.88;14.93;;;;;;;;;;10506457;28;20020;-75
2022/12/18 22:24:41;;;;;;;35.20;15.77;;;;;;;;;;10506594;28;20497;-76
2022/12/18 22:35:02;;;;;;;40.50;15.45;;;;;;;;;;10524896;28;20532;-80
2022/12/18 22:40:02;;;;;;;33.88;15.38;;;;;;;;;;10502957;28;20024;-75
2022/12/18 22:45:02;;;;;;;32.50;13.38;;;;;;;;;;10513631;28;20378;-75
2022/12/18 22:50:04;;;;;;;37.92;14.55;;;;;;;;;;10505915;28;20024;-74
2022/12/18 22:55:05;;;;;;;36.13;14.80;;;;;;;;;;10505985;28;20048;-74
2022/12/18 23:00:07;;;;;;;36.03;14.77;;;;;;;;;;10512529;28;20028;-74
2022/12/18 23:05:07;;;;;;;37.97;15.18;;;;;;;;;;10512973;28;20541;-78
2022/12/18 23:10:08;;;;;;;35.70;13.70;;;;;;;;;;10529379;28;20088;-77
2022/12/18 23:15:08;;;;;;;32.38;13.82;;;;;;;;;;10513411;28;20071;-79
2022/12/18 23:20:09;;;;;;;30.52;13.55;;;;;;;;;;10512137;28;20030;-78
2022/12/18 23:25:09;;;;;;;29.73;13.93;;;;;;;;;;10511555;28;20045;-73
2022/12/18 23:30:10;;;;;;;39.38;15.77;;;;;;;;;;10511573;28;20027;-77
2022/12/18 23:35:10;;;;;;;36.10;15.13;;;;;;;;;;10511871;28;20059;-79
2022/12/18 23:40:10;;;;;;;33.00;14.52;;;;;;;;;;10509625;28;20048;-75
2022/12/18 23:45:11;;;;;;;36.65;14.55;;;;;;;;;;10516927;28;20024;-73
2022/12/18 23:50:12;;;;;;;34.92;14.30;;;;;;;;;;10536671;28;20036;-73
2022/12/18 23:55:12;;;;;;;32.80;14.63;;;;;;;;;;10518746;28;20048;-76
